Clipper Titan — C6V2055 — position and weather

sailwx.info

Track history (hours):
 
Tides and Currents Weather Stations Pressure Air Temp Water Temp Dewpoint Dewpoint Depression Visibility Wind Speed Wind Dir Waves Ship Positions

Clipper Titan

Last reported at 2017-Apr-09 17:52 UTC. Time now 2017-May-28 16:34 UTC.
Position N 09°13' W 079°55'.
Warning: this ship's position is 48 days out of date.

Length 179 m; draft 9.9 m.

Type: Cargo ship. MMSI: 311008200.

Date/timePositionNaut miles runAvg speedWind from/ knotsBaromVisibWave heightAir tempDewpointWater temp
2017-Apr-09 17:52N 09°13' W 079°55'1 3.4
2017-Apr-09 17:31N 09°14' W 079°56'2 3.2
2017-Apr-09 17:00N 09°15' W 079°55'0 0.1
2017-Apr-09 15:11N 09°15' W 079°55'0 0.0
2017-Apr-09 10:02N 09°15' W 079°55'0 0.2
2017-Apr-09 09:42N 09°15' W 079°55'0 1.6
2017-Apr-09 09:30N 09°15' W 079°55'1 2.4
2017-Apr-09 09:00N 09°16' W 079°55'0 0.7
2017-Apr-09 08:30N 09°17' W 079°55'0 0.6
2017-Apr-09 08:00N 09°17' W 079°55'1 1.7
2017-Apr-09 07:28N 09°18' W 079°55'3 5.7
2017-Apr-09 07:00N 09°20' W 079°55'2 3.7
2017-Apr-09 06:30N 09°22' W 079°55'0 0.2
2017-Apr-09 06:00N 09°22' W 079°55'0 0.0
2017-Apr-09 05:30N 09°22' W 079°55'0 0.0
2017-Apr-09 05:00N 09°22' W 079°55'0 0.0
2017-Apr-09 04:30N 09°22' W 079°55'0 0.0
2017-Apr-09 04:00N 09°22' W 079°55'0 0.0
2017-Apr-09 03:30N 09°22' W 079°55'0 0.0
2017-Apr-09 02:57N 09°22' W 079°55'0 0.0
2017-Apr-09 02:30N 09°22' W 079°55'0 0.2
2017-Apr-09 02:00N 09°22' W 079°55'1 1.1
2017-Apr-09 01:30N 09°23' W 079°55'3 5.4
2017-Apr-09 00:59N 09°25' W 079°55'0 0.8
2017-Apr-09 00:28N 09°25' W 079°56'0 0.1
2017-Apr-08 23:58N 09°25' W 079°56'0 0.0
2017-Apr-08 23:28N 09°25' W 079°56'0 0.0
2017-Apr-08 22:58N 09°25' W 079°56'0 0.0
2017-Apr-08 22:28N 09°25' W 079°56'0 0.0
2017-Apr-08 21:55N 09°25' W 079°56'0 0.0
2017-Apr-08 21:28N 09°25' W 079°56'0 0.0
2017-Apr-08 20:58N 09°25' W 079°56'0 0.0
2017-Apr-08 20:28N 09°25' W 079°56'0 0.0
2017-Apr-08 19:58N 09°25' W 079°56'0 0.0
2017-Apr-08 19:28N 09°25' W 079°56'0 0.0
2017-Apr-08 18:58N 09°25' W 079°56'0 0.0
2017-Apr-08 18:28N 09°25' W 079°56'0 0.0
2017-Apr-08 17:58N 09°25' W 079°56'0 0.0
2017-Apr-08 17:28N 09°25' W 079°56'0 0.0
2017-Apr-08 16:58N 09°25' W 079°56'0 0.0
2017-Apr-08 16:28N 09°25' W 079°56'0 0.0
2017-Apr-08 15:55N 09°25' W 079°56'0 0.0
2017-Apr-08 15:28N 09°25' W 079°56'0 0.0
2017-Apr-08 14:58N 09°25' W 079°56'0 0.0
2017-Apr-08 13:58N 09°25' W 079°56'0 0.0
2017-Apr-08 13:28N 09°25' W 079°56'0 0.0
2017-Apr-08 12:58N 09°25' W 079°56'0 0.0
2017-Apr-08 12:28N 09°25' W 079°56'0 0.0
2017-Apr-08 11:58N 09°25' W 079°56'0 0.0
2017-Apr-08 11:25N 09°25' W 079°56'0 0.0
2017-Apr-08 10:52N 09°25' W 079°56'0 0.0
2017-Apr-08 10:25N 09°25' W 079°56'0 0.0
2017-Apr-08 09:58N 09°25' W 079°56'0 0.0
2017-Apr-08 09:19N 09°25' W 079°56'0 0.0
2017-Apr-08 08:58N 09°25' W 079°56'0 0.0
2017-Apr-08 08:28N 09°25' W 079°56'0 0.0
2017-Apr-08 07:52N 09°25' W 079°56'0 0.0
2017-Apr-08 07:28N 09°25' W 079°56'0 0.0
2017-Apr-08 06:58N 09°25' W 079°56'0 0.0
2017-Apr-08 06:28N 09°25' W 079°56'0 0.0
2017-Apr-08 05:58N 09°25' W 079°56'0 0.0
2017-Apr-08 05:28N 09°25' W 079°56'0 0.0
2017-Apr-08 04:52N 09°25' W 079°56'0 0.0
2017-Apr-08 04:28N 09°25' W 079°56'0 0.0
2017-Apr-08 03:49N 09°25' W 079°56'0 0.0
2017-Apr-08 03:25N 09°25' W 079°56'0 0.0
2017-Apr-08 02:58N 09°25' W 079°56'0 0.0
2017-Apr-08 02:28N 09°25' W 079°56'0 0.0
2017-Apr-08 01:52N 09°25' W 079°56'0 0.0
2017-Apr-08 01:28N 09°25' W 079°56'0 0.0
2017-Apr-08 00:58N 09°25' W 079°56'0 0.0
2017-Apr-08 00:28N 09°25' W 079°56'0 0.0
2017-Apr-07 23:58N 09°25' W 079°56'0 0.0
2017-Apr-07 23:28N 09°25' W 079°56'0 0.0
2017-Apr-07 22:58N 09°25' W 079°56'0 0.0
2017-Apr-07 22:25N 09°25' W 079°56'0 0.0
2017-Apr-07 21:58N 09°25' W 079°56'0 0.0
2017-Apr-07 21:28N 09°25' W 079°56'0 0.0
2017-Apr-07 20:58N 09°25' W 079°56'0 0.0
2017-Apr-07 20:28N 09°25' W 079°56'0 0.0
2017-Apr-07 19:58N 09°25' W 079°56'0 0.0
2017-Apr-07 19:25N 09°25' W 079°56'0 0.0
2017-Apr-07 18:58N 09°25' W 079°56'0 0.0
2017-Apr-07 18:28N 09°25' W 079°56'0 0.0
2017-Apr-07 17:55N 09°25' W 079°56'0 0.1
2017-Apr-07 17:25N 09°25' W 079°56'0 0.0
2017-Apr-07 16:55N 09°25' W 079°56'0 0.0
2017-Apr-07 16:28N 09°25' W 079°56'0 0.0
2017-Apr-07 15:58N 09°25' W 079°56'0 0.0
2017-Apr-07 15:28N 09°25' W 079°56'0 0.0
2017-Apr-07 14:58N 09°25' W 079°56'0 0.0
2017-Apr-07 14:28N 09°25' W 079°56'0 0.0
2017-Apr-07 13:28N 09°25' W 079°56'0 0.0
2017-Apr-07 12:58N 09°25' W 079°56'0 0.3
2017-Apr-07 12:30N 09°25' W 079°56'1 2.8
2017-Apr-07 12:00N 09°27' W 079°55'4 7.6
2017-Apr-07 11:30N 09°30' W 079°54'  
Track history (hours):
 
Tides and Currents Weather Stations Pressure Air Temp Water Temp Dewpoint Dewpoint Depression Visibility Wind Speed Wind Dir Waves Ship Positions

Clipper Titan

Last reported at 2017-Apr-09 17:52 UTC. Time now 2017-May-28 16:34 UTC.
Position N 09°13' W 079°55'.
Warning: this ship's position is 48 days out of date.

Length 179 m; draft 9.9 m.

Type: Cargo ship. MMSI: 311008200.

Date/timePositionNaut miles runAvg speedWind from/ knotsBaromVisibWave heightAir tempDewpointWater temp
2017-Apr-09 17:52N 09°13' W 079°55'1 3.4
2017-Apr-09 17:31N 09°14' W 079°56'2 3.2
2017-Apr-09 17:00N 09°15' W 079°55'0 0.1
2017-Apr-09 15:11N 09°15' W 079°55'0 0.0
2017-Apr-09 10:02N 09°15' W 079°55'0 0.2
2017-Apr-09 09:42N 09°15' W 079°55'0 1.6
2017-Apr-09 09:30N 09°15' W 079°55'1 2.4
2017-Apr-09 09:00N 09°16' W 079°55'0 0.7
2017-Apr-09 08:30N 09°17' W 079°55'0 0.6
2017-Apr-09 08:00N 09°17' W 079°55'1 1.7
2017-Apr-09 07:28N 09°18' W 079°55'3 5.7
2017-Apr-09 07:00N 09°20' W 079°55'2 3.7
2017-Apr-09 06:30N 09°22' W 079°55'0 0.2
2017-Apr-09 06:00N 09°22' W 079°55'0 0.0
2017-Apr-09 05:30N 09°22' W 079°55'0 0.0
2017-Apr-09 05:00N 09°22' W 079°55'0 0.0
2017-Apr-09 04:30N 09°22' W 079°55'0 0.0
2017-Apr-09 04:00N 09°22' W 079°55'0 0.0
2017-Apr-09 03:30N 09°22' W 079°55'0 0.0
2017-Apr-09 02:57N 09°22' W 079°55'0 0.0
2017-Apr-09 02:30N 09°22' W 079°55'0 0.2
2017-Apr-09 02:00N 09°22' W 079°55'1 1.1
2017-Apr-09 01:30N 09°23' W 079°55'3 5.4
2017-Apr-09 00:59N 09°25' W 079°55'0 0.8
2017-Apr-09 00:28N 09°25' W 079°56'0 0.1
2017-Apr-08 23:58N 09°25' W 079°56'0 0.0
2017-Apr-08 23:28N 09°25' W 079°56'0 0.0
2017-Apr-08 22:58N 09°25' W 079°56'0 0.0
2017-Apr-08 22:28N 09°25' W 079°56'0 0.0
2017-Apr-08 21:55N 09°25' W 079°56'0 0.0
2017-Apr-08 21:28N 09°25' W 079°56'0 0.0
2017-Apr-08 20:58N 09°25' W 079°56'0 0.0
2017-Apr-08 20:28N 09°25' W 079°56'0 0.0
2017-Apr-08 19:58N 09°25' W 079°56'0 0.0
2017-Apr-08 19:28N 09°25' W 079°56'0 0.0
2017-Apr-08 18:58N 09°25' W 079°56'0 0.0
2017-Apr-08 18:28N 09°25' W 079°56'0 0.0
2017-Apr-08 17:58N 09°25' W 079°56'0 0.0
2017-Apr-08 17:28N 09°25' W 079°56'0 0.0
2017-Apr-08 16:58N 09°25' W 079°56'0 0.0
2017-Apr-08 16:28N 09°25' W 079°56'0 0.0
2017-Apr-08 15:55N 09°25' W 079°56'0 0.0
2017-Apr-08 15:28N 09°25' W 079°56'0 0.0
2017-Apr-08 14:58N 09°25' W 079°56'0 0.0
2017-Apr-08 13:58N 09°25' W 079°56'0 0.0
2017-Apr-08 13:28N 09°25' W 079°56'0 0.0
2017-Apr-08 12:58N 09°25' W 079°56'0 0.0
2017-Apr-08 12:28N 09°25' W 079°56'0 0.0
2017-Apr-08 11:58N 09°25' W 079°56'0 0.0
2017-Apr-08 11:25N 09°25' W 079°56'0 0.0
2017-Apr-08 10:52N 09°25' W 079°56'0 0.0
2017-Apr-08 10:25N 09°25' W 079°56'0 0.0
2017-Apr-08 09:58N 09°25' W 079°56'0 0.0
2017-Apr-08 09:19N 09°25' W 079°56'0 0.0
2017-Apr-08 08:58N 09°25' W 079°56'0 0.0
2017-Apr-08 08:28N 09°25' W 079°56'0 0.0
2017-Apr-08 07:52N 09°25' W 079°56'0 0.0
2017-Apr-08 07:28N 09°25' W 079°56'0 0.0
2017-Apr-08 06:58N 09°25' W 079°56'0 0.0
2017-Apr-08 06:28N 09°25' W 079°56'0 0.0
2017-Apr-08 05:58N 09°25' W 079°56'0 0.0
2017-Apr-08 05:28N 09°25' W 079°56'0 0.0
2017-Apr-08 04:52N 09°25' W 079°56'0 0.0
2017-Apr-08 04:28N 09°25' W 079°56'0 0.0
2017-Apr-08 03:49N 09°25' W 079°56'0 0.0
2017-Apr-08 03:25N 09°25' W 079°56'0 0.0
2017-Apr-08 02:58N 09°25' W 079°56'0 0.0
2017-Apr-08 02:28N 09°25' W 079°56'0 0.0
2017-Apr-08 01:52N 09°25' W 079°56'0 0.0
2017-Apr-08 01:28N 09°25' W 079°56'0 0.0
2017-Apr-08 00:58N 09°25' W 079°56'0 0.0
2017-Apr-08 00:28N 09°25' W 079°56'0 0.0
2017-Apr-07 23:58N 09°25' W 079°56'0 0.0
2017-Apr-07 23:28N 09°25' W 079°56'0 0.0
2017-Apr-07 22:58N 09°25' W 079°56'0 0.0
2017-Apr-07 22:25N 09°25' W 079°56'0 0.0
2017-Apr-07 21:58N 09°25' W 079°56'0 0.0
2017-Apr-07 21:28N 09°25' W 079°56'0 0.0
2017-Apr-07 20:58N 09°25' W 079°56'0 0.0
2017-Apr-07 20:28N 09°25' W 079°56'0 0.0
2017-Apr-07 19:58N 09°25' W 079°56'0 0.0
2017-Apr-07 19:25N 09°25' W 079°56'0 0.0
2017-Apr-07 18:58N 09°25' W 079°56'0 0.0
2017-Apr-07 18:28N 09°25' W 079°56'0 0.0
2017-Apr-07 17:55N 09°25' W 079°56'0 0.1
2017-Apr-07 17:25N 09°25' W 079°56'0 0.0
2017-Apr-07 16:55N 09°25' W 079°56'0 0.0
2017-Apr-07 16:28N 09°25' W 079°56'0 0.0
2017-Apr-07 15:58N 09°25' W 079°56'0 0.0
2017-Apr-07 15:28N 09°25' W 079°56'0 0.0
2017-Apr-07 14:58N 09°25' W 079°56'0 0.0
2017-Apr-07 14:28N 09°25' W 079°56'0 0.0
2017-Apr-07 13:28N 09°25' W 079°56'0 0.0
2017-Apr-07 12:58N 09°25' W 079°56'0 0.3
2017-Apr-07 12:30N 09°25' W 079°56'1 2.8
2017-Apr-07 12:00N 09°27' W 079°55'4 7.6
2017-Apr-07 11:30N 09°30' W 079°54'  

Dump ship's entire track history